Time;durP1;ratioP1;P1;durP2;ratioP2;P2;SDS_P1;SDS_P2;PMS_P1;PMS_P2;Temp;Humidity;BMP_temperature;BMP_pressure;BME280_temperature;BME280_humidity;BME280_pressure;Samples;Min_cycle;Max_cycle;Signal;HPM_P1;HPM_P2
2023/03/17 00:01:02;;;;;;;3.40;3.10;;;9.50;25.80;;;;;;5053016;28;20385;-72
2023/03/17 00:03:29;;;;;;;5.68;3.38;;;9.50;25.00;;;;;;5053264;28;20389;-72
2023/03/17 00:05:57;;;;;;;5.28;3.58;;;9.60;25.70;;;;;;5051844;28;20497;-72
2023/03/17 00:08:33;;;;;;;7.90;3.30;;;9.60;25.70;;;;;;5053620;28;20382;-73
2023/03/17 00:10:59;;;;;;;5.65;3.60;;;9.50;25.00;;;;;;5052939;28;20388;-73
2023/03/17 00:13:26;;;;;;;5.00;3.13;;;9.60;25.60;;;;;;5053063;28;20378;-73
2023/03/17 00:16:01;;;;;;;6.40;3.13;;;9.50;25.70;;;;;;5053513;28;20413;-74
2023/03/17 00:18:29;;;;;;;5.47;3.30;;;9.50;26.00;;;;;;5053157;28;20994;-72
2023/03/17 00:20:54;;;;;;;5.75;3.55;;;9.50;25.90;;;;;;5052632;28;20417;-72
2023/03/17 00:23:22;;;;;;;7.13;3.60;;;9.60;25.50;;;;;;5053035;28;20444;-72
2023/03/17 00:25:48;;;;;;;4.82;3.40;;;9.50;26.10;;;;;;5053115;28;20410;-73
2023/03/17 00:28:23;;;;;;;6.60;3.83;;;9.60;25.40;;;;;;5053259;28;20435;-72
2023/03/17 00:30:53;;;;;;;8.18;3.80;;;9.50;25.90;;;;;;5053317;28;20385;-72
2023/03/17 00:33:23;;;;;;;5.05;3.60;;;9.50;25.80;;;;;;5054017;28;20716;-72
2023/03/17 00:35:49;;;;;;;5.95;3.60;;;9.50;25.90;;;;;;5064450;28;20389;-70
2023/03/17 00:38:16;;;;;;;6.55;3.40;;;9.50;25.60;;;;;;5069154;28;20385;-71
2023/03/17 00:40:44;;;;;;;4.53;3.38;;;9.50;25.70;;;;;;5065151;28;20805;-72
2023/03/17 00:43:11;;;;;;;4.93;3.10;;;9.50;26.40;;;;;;5052613;28;20882;-73
2023/03/17 00:45:38;;;;;;;4.20;3.20;;;9.50;26.40;;;;;;5052871;28;20409;-73
2023/03/17 00:48:13;;;;;;;6.17;3.67;;;9.40;26.10;;;;;;5052701;28;20483;-74
2023/03/17 00:50:39;;;;;;;5.60;3.67;;;9.40;27.20;;;;;;5052962;28;20452;-72
2023/03/17 00:53:09;;;;;;;6.90;3.40;;;9.30;26.70;;;;;;5052256;28;20385;-73
2023/03/17 00:55:36;;;;;;;5.25;3.00;;;9.20;27.10;;;;;;5052553;28;20388;-72
2023/03/17 00:58:02;;;;;;;5.45;3.30;;;9.30;27.50;;;;;;5052903;28;20389;-72
2023/03/17 01:00:28;;;;;;;6.55;3.22;;;9.30;27.60;;;;;;5053319;28;20469;-71
2023/03/17 01:02:56;;;;;;;5.90;3.50;;;9.40;27.00;;;;;;5058337;28;20476;-73
2023/03/17 01:05:24;;;;;;;4.18;3.20;;;9.20;27.30;;;;;;5057987;28;20405;-73
2023/03/17 01:07:52;;;;;;;8.93;3.40;;;9.20;28.10;;;;;;5058791;28;20462;-72
2023/03/17 01:10:24;;;;;;;6.22;3.45;;;9.30;27.30;;;;;;5057675;28;20439;-74
2023/03/17 01:12:51;;;;;;;7.60;3.40;;;9.30;27.50;;;;;;5052911;28;20380;-74
2023/03/17 01:15:18;;;;;;;6.30;3.85;;;9.30;27.80;;;;;;5051813;28;20393;-73
2023/03/17 01:17:45;;;;;;;5.88;3.80;;;9.30;27.50;;;;;;5050409;28;20405;-74
2023/03/17 01:20:20;;;;;;;5.00;3.63;;;9.30;27.30;;;;;;5051748;28;20882;-73
2023/03/17 01:22:46;;;;;;;6.40;3.33;;;9.20;28.40;;;;;;5050554;28;20390;-73
2023/03/17 01:25:12;;;;;;;5.00;3.08;;;9.20;27.50;;;;;;5051584;28;20409;-73
2023/03/17 01:27:40;;;;;;;4.85;2.75;;;9.20;28.70;;;;;;5052120;28;20451;-73
2023/03/17 01:30:12;;;;;;;5.20;3.40;;;9.20;28.30;;;;;;5051771;28;20382;-73
2023/03/17 01:32:38;;;;;;;5.95;3.60;;;9.20;28.20;;;;;;5051687;28;20489;-73
2023/03/17 01:35:05;;;;;;;6.30;2.97;;;9.30;28.80;;;;;;5051855;28;20510;-72
2023/03/17 01:37:31;;;;;;;5.72;3.22;;;9.20;27.60;;;;;;5052046;28;20868;-73
2023/03/17 01:40:03;;;;;;;7.43;3.17;;;9.20;28.50;;;;;;5052070;28;20438;-72
2023/03/17 01:42:29;;;;;;;5.70;3.00;;;9.10;27.90;;;;;;5051445;28;20431;-72
2023/03/17 01:45:00;;;;;;;4.38;3.17;;;9.10;27.30;;;;;;5052221;28;20952;-73
2023/03/17 01:47:29;;;;;;;5.28;3.30;;;9.10;28.80;;;;;;5050870;28;20374;-72
2023/03/17 01:49:56;;;;;;;5.03;3.60;;;9.20;28.20;;;;;;5051406;28;20752;-72
2023/03/17 01:52:22;;;;;;;8.68;3.30;;;9.10;29.60;;;;;;5050934;28;20774;-72
2023/03/17 01:54:59;;;;;;;4.50;2.80;;;9.20;28.50;;;;;;5051300;28;20431;-72
2023/03/17 01:57:35;;;;;;;5.40;3.03;;;9.20;27.70;;;;;;5051159;28;20460;-71
2023/03/17 02:00:07;;;;;;;6.78;4.22;;;9.20;27.40;;;;;;5051108;28;20419;-72
2023/03/17 02:02:40;;;;;;;5.37;3.17;;;9.20;27.70;;;;;;5051225;28;20396;-73
2023/03/17 02:05:10;;;;;;;4.10;3.22;;;9.20;27.80;;;;;;5051174;28;20397;-72
2023/03/17 02:07:36;;;;;;;4.35;3.40;;;9.20;27.40;;;;;;5050551;28;20414;-71
2023/03/17 02:10:04;;;;;;;5.85;3.17;;;9.30;28.50;;;;;;5051310;28;20782;-72
2023/03/17 02:12:29;;;;;;;5.10;3.20;;;9.30;27.20;;;;;;5051059;28;20398;-72
2023/03/17 02:14:56;;;;;;;5.50;3.53;;;9.30;26.40;;;;;;5050045;28;20419;-72
2023/03/17 02:17:24;;;;;;;3.78;2.70;;;9.20;27.50;;;;;;5051188;28;20424;-72
2023/03/17 02:19:50;;;;;;;6.03;3.08;;;9.10;26.90;;;;;;5064343;28;20389;-73
2023/03/17 02:22:17;;;;;;;5.40;3.45;;;9.20;27.30;;;;;;5067180;28;20526;-72
2023/03/17 02:24:54;;;;;;;5.90;2.85;;;9.20;27.50;;;;;;5059824;28;20413;-73
2023/03/17 02:27:22;;;;;;;7.70;3.10;;;9.20;28.00;;;;;;5054409;28;20381;-73
2023/03/17 02:29:49;;;;;;;3.30;2.80;;;9.10;27.20;;;;;;5051644;28;20388;-72
2023/03/17 02:32:17;;;;;;;5.07;3.30;;;9.00;27.10;;;;;;5051253;28;20409;-71
2023/03/17 02:34:43;;;;;;;4.63;3.30;;;9.00;28.00;;;;;;5051374;28;20391;-72
2023/03/17 02:37:09;;;;;;;7.18;3.30;;;9.00;28.50;;;;;;5051117;28;20382;-71
2023/03/17 02:39:35;;;;;;;4.30;3.20;;;8.90;27.60;;;;;;5049405;28;20385;-73
2023/03/17 02:42:02;;;;;;;5.18;3.50;;;9.00;27.30;;;;;;5050776;28;20393;-73
2023/03/17 02:44:28;;;;;;;5.07;3.25;;;8.90;27.60;;;;;;5050522;28;20402;-73
2023/03/17 02:46:53;;;;;;;6.37;3.10;;;8.90;28.10;;;;;;5051192;28;20491;-72
2023/03/17 02:49:20;;;;;;;5.18;3.75;;;8.90;28.00;;;;;;5050472;28;20382;-72
2023/03/17 02:51:46;;;;;;;6.30;3.45;;;9.00;28.40;;;;;;5050487;28;20387;-73
2023/03/17 02:54:11;;;;;;;5.57;3.30;;;9.00;27.40;;;;;;5050517;28;20424;-72
2023/03/17 02:56:37;;;;;;;6.43;3.40;;;8.90;28.50;;;;;;5050531;28;20420;-73
2023/03/17 02:59:03;;;;;;;6.20;3.30;;;8.80;27.60;;;;;;5051688;28;20393;-71
2023/03/17 03:01:29;;;;;;;7.72;3.67;;;8.80;28.10;;;;;;5050628;28;20475;-72
2023/03/17 03:03:55;;;;;;;5.63;3.40;;;8.80;29.60;;;;;;5050449;28;20408;-73
2023/03/17 03:06:22;;;;;;;4.85;2.90;;;8.80;28.20;;;;;;5050062;28;20874;-72
2023/03/17 03:08:49;;;;;;;4.35;3.20;;;8.70;28.40;;;;;;5050562;28;20750;-72
2023/03/17 03:11:14;;;;;;;4.65;3.10;;;8.70;29.20;;;;;;5050784;28;20432;-71
2023/03/17 03:13:41;;;;;;;4.10;3.00;;;8.80;29.30;;;;;;5050477;28;20388;-72
2023/03/17 03:16:07;;;;;;;4.45;3.13;;;8.80;28.80;;;;;;5048741;28;20405;-73
2023/03/17 03:18:32;;;;;;;4.17;3.50;;;8.70;30.10;;;;;;5052890;28;20472;-72
2023/03/17 03:20:58;;;;;;;5.30;3.33;;;8.70;30.00;;;;;;5054953;28;20917;-71
2023/03/17 03:23:23;;;;;;;5.60;3.30;;;8.70;28.90;;;;;;5054790;28;20412;-73
2023/03/17 03:25:49;;;;;;;5.23;3.37;;;8.70;29.80;;;;;;5053759;28;20401;-73
2023/03/17 03:28:15;;;;;;;6.40;3.40;;;8.60;29.80;;;;;;5053844;28;20378;-72
2023/03/17 03:30:41;;;;;;;4.40;3.00;;;8.60;29.70;;;;;;5054050;28;20376;-72
2023/03/17 03:33:06;;;;;;;4.25;3.17;;;8.60;29.90;;;;;;5053670;28;20381;-73
2023/03/17 03:35:33;;;;;;;4.80;2.80;;;8.60;29.60;;;;;;5053797;28;20530;-71
2023/03/17 03:37:58;;;;;;;8.10;3.63;;;8.60;29.50;;;;;;5053983;28;20393;-73
2023/03/17 03:40:24;;;;;;;4.15;2.80;;;8.60;29.40;;;;;;5053733;28;20404;-74
2023/03/17 03:42:50;;;;;;;5.43;3.10;;;8.50;29.30;;;;;;5051963;28;20381;-71
2023/03/17 03:45:16;;;;;;;7.77;3.47;;;8.50;29.50;;;;;;5053374;28;20428;-71
2023/03/17 03:47:41;;;;;;;4.43;2.87;;;8.60;29.30;;;;;;5053183;28;20382;-73
2023/03/17 03:50:08;;;;;;;6.65;3.60;;;8.50;28.90;;;;;;5052274;28;20389;-71
2023/03/17 03:52:34;;;;;;;5.60;3.20;;;8.50;29.70;;;;;;5053058;28;20877;-71
2023/03/17 03:54:59;;;;;;;5.22;3.30;;;8.50;29.40;;;;;;5053676;28;20385;-72
2023/03/17 03:57:25;;;;;;;5.55;3.50;;;8.50;30.50;;;;;;5053123;28;20886;-73
2023/03/17 03:59:51;;;;;;;4.13;3.10;;;8.50;30.00;;;;;;5053391;28;20724;-72
2023/03/17 04:02:17;;;;;;;9.00;3.60;;;8.50;29.50;;;;;;5052802;28;20393;-73
2023/03/17 04:04:42;;;;;;;5.45;3.53;;;8.50;28.90;;;;;;5053175;28;20409;-73
2023/03/17 04:07:08;;;;;;;5.80;3.38;;;8.60;29.60;;;;;;5053472;28;20492;-72
2023/03/17 04:09:34;;;;;;;5.00;3.22;;;8.60;29.50;;;;;;5053299;28;20381;-72
2023/03/17 04:11:59;;;;;;;7.78;3.33;;;8.60;28.10;;;;;;5052976;28;20420;-72
2023/03/17 04:14:25;;;;;;;6.33;3.80;;;8.60;28.30;;;;;;5053178;28;20381;-73
2023/03/17 04:16:51;;;;;;;6.78;3.30;;;8.60;28.50;;;;;;5053222;28;20397;-73
2023/03/17 04:19:16;;;;;;;4.55;3.40;;;8.50;28.80;;;;;;5054268;28;20765;-73
2023/03/17 04:21:42;;;;;;;4.80;3.38;;;8.60;29.40;;;;;;5053912;28;20454;-72
2023/03/17 04:24:07;;;;;;;4.18;3.30;;;8.60;29.40;;;;;;5052840;28;20467;-72
2023/03/17 04:26:33;;;;;;;5.68;3.30;;;8.50;29.70;;;;;;5052450;28;20895;-71
2023/03/17 04:28:59;;;;;;;6.40;3.30;;;8.50;28.90;;;;;;5053823;28;20384;-72
2023/03/17 04:31:25;;;;;;;5.97;3.23;;;8.60;29.60;;;;;;5052076;28;20385;-72
2023/03/17 04:33:50;;;;;;;5.03;3.30;;;8.50;29.10;;;;;;5052774;28;20382;-74
2023/03/17 04:36:19;;;;;;;4.55;3.10;;;8.50;30.30;;;;;;5053696;28;20424;-73
2023/03/17 04:38:45;;;;;;;4.88;3.25;;;8.50;29.20;;;;;;5063635;28;20370;-72
2023/03/17 04:41:10;;;;;;;6.03;3.50;;;8.50;29.60;;;;;;5070538;28;20378;-72
2023/03/17 04:43:36;;;;;;;8.33;3.57;;;8.50;29.00;;;;;;5071861;28;20407;-74
2023/03/17 04:46:01;;;;;;;7.00;3.40;;;8.50;29.30;;;;;;5052871;28;20799;-74
2023/03/17 04:48:27;;;;;;;4.80;3.43;;;8.50;29.40;;;;;;5052215;28;20390;-73
2023/03/17 04:50:52;;;;;;;6.40;3.90;;;8.50;29.00;;;;;;5052236;28;20871;-73
2023/03/17 04:53:18;;;;;;;6.68;3.20;;;8.50;30.70;;;;;;5052288;28;20476;-73
2023/03/17 04:55:44;;;;;;;4.60;3.50;;;8.50;29.50;;;;;;5052253;28;20393;-72
2023/03/17 04:58:10;;;;;;;5.80;3.50;;;8.60;29.30;;;;;;5052092;28;20393;-73
2023/03/17 05:00:37;;;;;;;8.10;3.47;;;8.50;29.30;;;;;;5050162;28;20397;-74
2023/03/17 05:03:07;;;;;;;5.72;4.20;;;8.50;29.10;;;;;;5050878;28;20397;-72
2023/03/17 05:05:33;;;;;;;4.63;3.30;;;8.60;29.00;;;;;;5051577;28;20421;-72
2023/03/17 05:07:58;;;;;;;7.75;3.65;;;8.50;29.90;;;;;;5051528;28;20408;-73
2023/03/17 05:10:24;;;;;;;6.97;3.70;;;8.60;29.30;;;;;;5052197;28;20405;-74
2023/03/17 05:12:50;;;;;;;6.43;3.80;;;8.50;30.60;;;;;;5053242;28;20390;-74
2023/03/17 05:15:16;;;;;;;7.35;3.60;;;8.40;29.10;;;;;;5052458;28;20405;-73
2023/03/17 05:17:41;;;;;;;4.60;3.60;;;8.60;29.30;;;;;;5052139;28;20389;-72
2023/03/17 05:20:09;;;;;;;5.80;3.53;;;8.60;29.30;;;;;;5052343;28;20386;-71
2023/03/17 05:22:35;;;;;;;7.38;3.78;;;8.60;29.90;;;;;;5050982;28;20466;-73
2023/03/17 05:25:01;;;;;;;4.93;3.55;;;8.50;30.00;;;;;;5053173;28;20401;-72
2023/03/17 05:27:27;;;;;;;7.90;4.05;;;8.40;29.70;;;;;;5053595;28;20388;-73
2023/03/17 05:29:52;;;;;;;9.73;4.60;;;8.40;29.90;;;;;;5052965;28;20451;-73
2023/03/17 05:32:18;;;;;;;9.10;4.75;;;8.40;30.00;;;;;;5052609;28;20534;-74
2023/03/17 05:34:45;;;;;;;7.47;4.07;;;8.40;29.40;;;;;;5052539;28;20524;-73
2023/03/17 05:37:11;;;;;;;9.43;3.97;;;8.30;29.70;;;;;;5052917;28;20484;-74
2023/03/17 05:39:37;;;;;;;9.52;4.47;;;8.30;29.90;;;;;;5052784;28;20409;-72
2023/03/17 05:42:03;;;;;;;7.63;3.90;;;8.30;29.30;;;;;;5051168;28;20889;-73
2023/03/17 05:44:28;;;;;;;6.63;3.80;;;8.30;29.00;;;;;;5051863;28;20401;-74
2023/03/17 05:46:54;;;;;;;8.60;4.40;;;8.30;28.90;;;;;;5051525;28;20397;-73
2023/03/17 05:49:20;;;;;;;9.50;4.45;;;8.30;30.30;;;;;;5051969;28;20419;-73
2023/03/17 05:51:46;;;;;;;19.17;5.90;;;8.30;29.60;;;;;;5051369;28;20389;-73
2023/03/17 05:54:11;;;;;;;6.90;4.00;;;8.30;30.10;;;;;;5051705;28;20416;-73
2023/03/17 05:56:37;;;;;;;8.17;4.10;;;8.30;29.70;;;;;;5051610;28;20388;-73
2023/03/17 05:59:03;;;;;;;9.18;4.85;;;8.30;29.70;;;;;;5051429;28;20476;-73
2023/03/17 06:01:30;;;;;;;8.10;5.55;;;8.30;29.80;;;;;;5050846;28;20443;-73
2023/03/17 06:03:55;;;;;;;7.45;3.92;;;8.40;29.80;;;;;;5051225;28;20397;-73
2023/03/17 06:06:22;;;;;;;9.60;5.43;;;8.40;29.30;;;;;;5050906;28;20398;-73
2023/03/17 06:08:47;;;;;;;9.57;4.10;;;8.60;29.40;;;;;;5051908;28;20757;-74
2023/03/17 06:11:13;;;;;;;5.50;4.20;;;8.50;29.10;;;;;;5051100;28;20382;-72
2023/03/17 06:13:38;;;;;;;7.23;4.20;;;8.40;28.80;;;;;;5051667;28;20466;-74
2023/03/17 06:16:04;;;;;;;7.70;3.93;;;8.40;29.20;;;;;;5065375;22;20429;-75
2023/03/17 06:18:30;;;;;;;7.90;4.20;;;8.50;28.70;;;;;;5050851;28;20375;-75
2023/03/17 06:20:56;;;;;;;10.93;4.57;;;8.50;28.50;;;;;;5044964;28;20386;-76
2023/03/17 06:23:22;;;;;;;9.98;4.20;;;8.60;28.60;;;;;;5047491;28;20390;-76
2023/03/17 06:25:48;;;;;;;7.15;4.10;;;8.70;28.50;;;;;;5042039;28;20403;-76
2023/03/17 06:28:14;;;;;;;7.38;4.00;;;8.80;28.20;;;;;;5035275;28;20391;-76
2023/03/17 06:30:40;;;;;;;6.00;3.80;;;8.70;28.40;;;;;;5031986;28;20409;-76
2023/03/17 06:33:05;;;;;;;8.10;3.33;;;8.70;28.20;;;;;;5032233;28;20472;-76
2023/03/17 06:35:32;;;;;;;8.50;4.40;;;8.70;28.40;;;;;;5034034;28;20389;-76
2023/03/17 06:37:58;;;;;;;7.30;3.90;;;8.80;28.20;;;;;;5033897;28;20418;-75
2023/03/17 06:40:24;;;;;;;8.38;4.10;;;9.00;27.10;;;;;;5034295;28;20387;-77
2023/03/17 06:42:50;;;;;;;9.55;4.43;;;9.10;27.20;;;;;;5032428;28;20387;-77
2023/03/17 06:45:16;;;;;;;9.02;4.13;;;9.00;27.20;;;;;;5034662;28;20436;-76
2023/03/17 06:47:42;;;;;;;6.78;3.88;;;9.20;27.20;;;;;;5032612;28;20395;-75
2023/03/17 06:50:08;;;;;;;7.55;3.83;;;9.20;26.30;;;;;;5032699;28;20375;-76
2023/03/17 06:52:35;;;;;;;5.90;3.75;;;9.40;25.80;;;;;;5031578;28;20413;-75
2023/03/17 06:55:00;;;;;;;8.27;3.90;;;9.60;25.80;;;;;;5017638;28;20481;-74
2023/03/17 06:57:26;;;;;;;6.77;3.90;;;9.50;25.40;;;;;;5035586;28;20472;-76
2023/03/17 06:59:52;;;;;;;4.73;3.47;;;9.60;25.30;;;;;;5035721;28;20386;-75
2023/03/17 07:02:18;;;;;;;8.30;3.47;;;9.70;25.40;;;;;;5035183;28;20383;-75
2023/03/17 07:04:43;;;;;;;7.10;3.55;;;9.80;24.60;;;;;;5035196;28;20470;-77
2023/03/17 07:07:09;;;;;;;7.55;3.88;;;9.80;24.20;;;;;;5035712;28;20391;-75
2023/03/17 07:09:36;;;;;;;6.80;3.60;;;9.90;24.00;;;;;;5036220;28;20382;-76
2023/03/17 07:12:04;;;;;;;9.18;4.00;;;9.90;24.00;;;;;;5036219;28;20771;-75
2023/03/17 07:14:35;;;;;;;5.45;3.63;;;10.10;23.40;;;;;;5034034;28;20391;-75
2023/03/17 07:17:04;;;;;;;8.23;4.30;;;10.40;23.10;;;;;;5035281;28;20402;-75
2023/03/17 07:19:30;;;;;;;5.60;3.40;;;10.30;23.00;;;;;;5035146;28;20737;-76
2023/03/17 07:21:56;;;;;;;6.90;3.90;;;10.50;22.50;;;;;;5034896;28;20401;-76
2023/03/17 07:24:23;;;;;;;4.70;3.67;;;10.60;23.10;;;;;;5035001;28;20403;-76
2023/03/17 07:26:48;;;;;;;6.85;3.72;;;10.70;21.90;;;;;;5034396;28;20399;-75
2023/03/17 07:29:15;;;;;;;7.97;3.60;;;10.70;21.30;;;;;;5034261;28;20747;-75
2023/03/17 07:31:42;;;;;;;6.10;3.30;;;10.60;21.20;;;;;;5034503;28;20545;-75
2023/03/17 07:34:07;;;;;;;5.40;3.80;;;10.80;21.60;;;;;;5034463;28;20379;-75
2023/03/17 07:36:33;;;;;;;6.00;3.60;;;10.90;21.00;;;;;;5034243;28;20387;-75
2023/03/17 07:39:00;;;;;;;4.53;3.40;;;11.00;21.10;;;;;;5034079;28;20718;-75
2023/03/17 07:41:27;;;;;;;5.47;3.40;;;11.00;20.40;;;;;;5034142;28;20879;-76
2023/03/17 07:43:53;;;;;;;5.57;3.58;;;11.20;20.50;;;;;;5033766;28;20880;-75
2023/03/17 07:46:18;;;;;;;6.00;3.25;;;11.20;20.40;;;;;;5033845;28;20457;-76
2023/03/17 07:48:45;;;;;;;7.17;3.80;;;11.30;20.00;;;;;;5034160;28;20858;-76
2023/03/17 07:51:17;;;;;;;6.32;3.40;;;11.20;20.30;;;;;;5033856;28;20375;-75
2023/03/17 07:53:45;;;;;;;6.35;3.40;;;11.40;19.80;;;;;;5034167;28;20745;-76
2023/03/17 07:56:11;;;;;;;7.25;4.28;;;11.60;19.70;;;;;;5033984;28;20394;-75
2023/03/17 07:58:36;;;;;;;6.70;3.58;;;11.60;19.10;;;;;;5034009;28;20423;-75
2023/03/17 08:01:02;;;;;;;7.20;3.50;;;11.60;19.10;;;;;;5034032;28;20387;-75
2023/03/17 08:03:29;;;;;;;4.53;3.60;;;11.60;19.40;;;;;;5034171;28;20391;-75
2023/03/17 08:05:56;;;;;;;5.57;3.35;;;11.80;19.20;;;;;;5033105;28;20469;-75
2023/03/17 08:08:23;;;;;;;5.38;3.30;;;12.00;18.70;;;;;;5034310;28;20391;-76
2023/03/17 08:10:49;;;;;;;9.10;3.47;;;11.80;18.90;;;;;;5034670;28;20509;-75
2023/03/17 08:13:15;;;;;;;7.47;3.55;;;11.60;19.10;;;;;;5033767;28;20812;-76
2023/03/17 08:15:41;;;;;;;7.40;3.55;;;11.60;19.90;;;;;;5033786;28;20409;-75
2023/03/17 08:18:06;;;;;;;10.27;3.70;;;11.70;19.80;;;;;;5034074;28;20483;-77
2023/03/17 08:20:33;;;;;;;6.75;3.60;;;12.00;19.40;;;;;;5034880;28;20391;-75
2023/03/17 08:22:59;;;;;;;8.10;3.70;;;12.10;19.00;;;;;;5032536;28;20451;-75
2023/03/17 08:25:25;;;;;;;5.70;3.40;;;11.90;18.80;;;;;;5033390;28;20403;-74
2023/03/17 08:27:51;;;;;;;5.55;3.45;;;12.00;18.50;;;;;;5033801;28;20394;-76
2023/03/17 08:30:17;;;;;;;6.28;3.05;;;12.00;18.70;;;;;;5033560;28;20379;-76
2023/03/17 08:32:43;;;;;;;6.43;3.55;;;12.20;18.40;;;;;;5033419;28;20379;-76
2023/03/17 08:35:14;;;;;;;9.95;3.20;;;12.20;18.80;;;;;;5034036;28;20432;-75
2023/03/17 08:37:41;;;;;;;7.32;3.55;;;12.10;18.40;;;;;;5034822;28;20737;-75
2023/03/17 08:40:08;;;;;;;7.33;3.60;;;11.90;18.70;;;;;;5034787;28;20554;-76
2023/03/17 08:42:36;;;;;;;7.22;3.40;;;12.00;18.80;;;;;;5034289;28;20387;-75
2023/03/17 08:45:03;;;;;;;7.00;3.45;;;12.00;18.80;;;;;;5034643;28;20481;-76
2023/03/17 08:47:29;;;;;;;6.47;3.25;;;12.10;18.60;;;;;;5034446;28;20383;-74
2023/03/17 08:49:55;;;;;;;11.23;3.55;;;12.20;18.20;;;;;;5034771;28;20383;-75
2023/03/17 08:52:21;;;;;;;9.67;3.80;;;12.30;18.90;;;;;;5043787;28;20383;-76
2023/03/17 08:54:47;;;;;;;7.85;3.50;;;12.40;18.40;;;;;;5054164;28;20397;-75
2023/03/17 08:57:14;;;;;;;5.70;3.42;;;12.50;18.20;;;;;;5038349;28;20391;-75
2023/03/17 08:59:40;;;;;;;6.73;3.63;;;12.60;18.60;;;;;;5033673;28;20461;-76
2023/03/17 09:02:06;;;;;;;8.15;4.00;;;12.70;18.40;;;;;;5034213;28;20406;-76
2023/03/17 09:04:32;;;;;;;7.85;3.70;;;12.90;18.20;;;;;;5034642;28;20407;-76
2023/03/17 09:06:58;;;;;;;4.22;3.33;;;12.90;17.50;;;;;;5042611;28;20923;-75
2023/03/17 09:09:23;;;;;;;7.05;4.18;;;12.90;17.80;;;;;;5047891;28;20419;-74
2023/03/17 09:11:49;;;;;;;9.90;3.83;;;12.80;17.50;;;;;;5039170;28;20462;-74
2023/03/17 09:14:15;;;;;;;8.02;3.80;;;12.90;17.90;;;;;;5035068;28;20383;-76
2023/03/17 09:16:41;;;;;;;4.60;2.90;;;13.10;17.80;;;;;;5047244;28;20419;-76
2023/03/17 09:19:07;;;;;;;5.47;3.40;;;13.30;17.10;;;;;;5047326;28;20387;-76
2023/03/17 09:21:32;;;;;;;5.53;3.55;;;13.30;16.60;;;;;;5034694;28;20387;-75
2023/03/17 09:23:58;;;;;;;5.17;3.20;;;13.30;17.00;;;;;;5032889;28;20454;-75
2023/03/17 09:26:25;;;;;;;6.03;3.35;;;13.50;16.70;;;;;;5032619;28;20402;-75
2023/03/17 09:28:51;;;;;;;6.55;3.60;;;13.70;16.50;;;;;;5032395;28;20383;-75
2023/03/17 09:31:16;;;;;;;6.13;4.00;;;13.90;16.20;;;;;;5032278;28;20386;-75
2023/03/17 09:33:42;;;;;;;7.18;3.50;;;13.90;16.30;;;;;;5032322;28;20413;-74
2023/03/17 09:36:09;;;;;;;6.97;3.38;;;14.00;16.20;;;;;;5031868;28;20876;-75
2023/03/17 09:38:36;;;;;;;6.82;2.90;;;14.00;15.80;;;;;;5032012;28;20391;-75
2023/03/17 09:41:20;;;;;;;6.20;3.17;;;13.90;15.80;;;;;;5032063;28;20895;-75
2023/03/17 09:44:10;;;;;;;5.13;3.40;;;14.30;16.30;;;;;;5031582;28;20422;-75
2023/03/17 09:46:57;;;;;;;7.75;3.83;;;14.30;15.80;;;;;;5031636;28;20418;-75
2023/03/17 09:49:41;;;;;;;7.40;3.70;;;14.40;15.80;;;;;;5031427;28;20744;-75
2023/03/17 09:52:13;;;;;;;8.32;3.60;;;14.40;15.50;;;;;;5031518;28;20375;-75
2023/03/17 09:54:40;;;;;;;9.25;3.33;;;14.50;15.40;;;;;;5030535;28;20383;-75
2023/03/17 09:57:17;;;;;;;6.20;3.10;;;14.50;15.60;;;;;;5031991;28;20431;-74
2023/03/17 09:59:46;;;;;;;7.10;3.40;;;14.70;14.90;;;;;;5031681;28;20387;-75
2023/03/17 10:02:22;;;;;;;8.00;3.23;;;14.90;14.80;;;;;;5031714;28;20406;-76
2023/03/17 10:04:48;;;;;;;4.10;3.20;;;14.90;14.60;;;;;;5030679;28;20485;-75
2023/03/17 10:07:19;;;;;;;5.77;2.93;;;15.00;13.80;;;;;;5032448;28;20433;-75
2023/03/17 10:09:52;;;;;;;5.53;2.90;;;15.20;14.20;;;;;;5031838;28;20383;-76
2023/03/17 10:12:45;;;;;;;10.57;3.10;;;15.00;14.20;;;;;;5031775;28;20379;-75
2023/03/17 10:15:21;;;;;;;4.40;3.20;;;14.70;14.80;;;;;;5032621;28;20486;-75
2023/03/17 10:17:47;;;;;;;7.28;3.47;;;14.80;15.10;;;;;;5031433;28;20494;-75
2023/03/17 10:20:17;;;;;;;5.23;3.30;;;15.00;14.70;;;;;;5030271;28;20438;-75
2023/03/17 10:22:53;;;;;;;7.57;3.60;;;14.90;15.00;;;;;;5030212;28;20391;-77
2023/03/17 10:25:22;;;;;;;4.57;3.60;;;15.00;14.50;;;;;;5030408;28;20495;-76
2023/03/17 10:27:55;;;;;;;5.38;3.20;;;15.30;14.00;;;;;;5030428;28;20494;-75
2023/03/17 10:30:22;;;;;;;9.18;3.58;;;15.10;14.60;;;;;;5031586;28;20380;-75
2023/03/17 10:32:48;;;;;;;5.50;3.03;;;15.30;14.90;;;;;;5030830;28;20391;-75
2023/03/17 10:35:15;;;;;;;7.03;3.47;;;15.10;14.80;;;;;;5031531;28;20398;-76
2023/03/17 10:37:41;;;;;;;8.15;3.60;;;15.20;15.00;;;;;;5031303;28;20887;-75
2023/03/17 10:40:19;;;;;;;8.82;3.70;;;15.20;15.00;;;;;;5031295;28;20482;-75
2023/03/17 10:42:59;;;;;;;6.28;3.25;;;15.30;14.60;;;;;;5031251;28;20406;-75
2023/03/17 10:45:31;;;;;;;5.85;3.47;;;15.60;13.70;;;;;;5031168;28;20409;-75
2023/03/17 10:48:00;;;;;;;6.03;3.00;;;15.80;14.00;;;;;;5029751;28;20898;-75
2023/03/17 10:50:31;;;;;;;5.40;3.40;;;16.30;13.20;;;;;;5030991;28;20764;-74
2023/03/17 10:53:02;;;;;;;5.40;3.10;;;15.90;13.50;;;;;;5030859;28;20442;-75
2023/03/17 10:55:39;;;;;;;4.82;3.10;;;15.80;13.40;;;;;;5031478;28;20418;-74
2023/03/17 10:58:05;;;;;;;8.75;4.00;;;15.80;13.20;;;;;;5031184;28;20384;-75
2023/03/17 11:00:34;;;;;;;8.67;4.00;;;15.90;14.30;;;;;;5032057;28;20395;-76
2023/03/17 11:03:15;;;;;;;8.13;3.33;;;16.20;13.40;;;;;;5031967;28;20760;-76
2023/03/17 11:05:59;;;;;;;5.10;3.25;;;16.20;13.00;;;;;;5031387;28;20403;-76
2023/03/17 11:08:34;;;;;;;4.88;3.40;;;16.60;12.40;;;;;;5030804;28;20892;-75
2023/03/17 11:11:04;;;;;;;6.65;3.20;;;16.50;13.00;;;;;;5030704;28;20852;-75
2023/03/17 11:13:30;;;;;;;5.38;3.60;;;16.50;12.10;;;;;;5030742;28;20387;-75
2023/03/17 11:16:20;;;;;;;8.33;3.40;;;16.80;12.30;;;;;;5030789;28;20792;-75
2023/03/17 11:18:48;;;;;;;5.15;3.35;;;16.90;12.50;;;;;;5031515;28;20394;-75
2023/03/17 11:21:21;;;;;;;12.77;3.50;;;16.70;11.90;;;;;;5032278;28;20861;-75
2023/03/17 11:23:49;;;;;;;6.90;3.53;;;17.20;12.10;;;;;;5047378;28;20383;-75
2023/03/17 11:26:23;;;;;;;6.50;3.80;;;17.20;11.70;;;;;;5040565;28;20395;-76
2023/03/17 11:28:57;;;;;;;6.97;2.90;;;17.70;11.60;;;;;;5031174;28;20379;-75
2023/03/17 11:31:32;;;;;;;8.05;3.47;;;18.00;10.90;;;;;;5030892;28;20425;-75
2023/03/17 11:34:24;;;;;;;7.55;3.70;;;17.80;10.40;;;;;;5029761;28;20809;-77
2023/03/17 11:37:27;;;;;;;10.18;3.70;;;18.00;10.60;;;;;;5030728;28;20379;-77
2023/03/17 11:40:02;;;;;;;7.90;3.53;;;18.20;10.70;;;;;;5036744;28;20811;-76
2023/03/17 11:42:42;;;;;;;8.30;4.10;;;18.10;10.30;;;;;;5034515;28;20383;-76
2023/03/17 11:45:22;;;;;;;8.07;3.75;;;17.90;10.80;;;;;;5034538;28;20403;-75
2023/03/17 11:47:56;;;;;;;7.68;3.65;;;18.00;10.80;;;;;;5034254;28;20383;-76
2023/03/17 11:50:39;;;;;;;8.88;3.42;;;18.10;10.40;;;;;;5034674;28;20433;-75
2023/03/17 11:53:10;;;;;;;9.18;4.10;;;18.30;10.20;;;;;;5034136;28;20379;-75
2023/03/17 11:56:07;;;;;;;4.25;3.40;;;18.00;10.50;;;;;;5034547;28;20383;-75
2023/03/17 11:59:00;;;;;;;5.90;3.45;;;18.00;10.80;;;;;;5034596;28;20383;-76
2023/03/17 12:01:38;;;;;;;12.45;4.25;;;18.20;10.00;;;;;;5036062;28;20399;-76
2023/03/17 12:04:21;;;;;;;6.57;3.50;;;18.40;9.40;;;;;;5036286;28;20422;-76
2023/03/17 12:06:57;;;;;;;9.75;3.83;;;18.30;9.80;;;;;;5048376;28;20418;-77
2023/03/17 12:09:31;;;;;;;10.65;3.88;;;18.10;10.50;;;;;;5038539;28;20383;-76
2023/03/17 12:11:59;;;;;;;7.25;3.40;;;17.70;10.60;;;;;;5049308;28;20383;-76
2023/03/17 12:14:27;;;;;;;5.87;3.33;;;17.90;10.40;;;;;;5050017;28;20632;-75
2023/03/17 12:17:11;;;;;;;12.43;3.88;;;17.90;10.30;;;;;;5035130;28;20926;-75
2023/03/17 12:20:05;;;;;;;6.03;3.20;;;18.10;10.40;;;;;;5034617;28;20394;-77
2023/03/17 12:22:54;;;;;;;8.82;3.67;;;18.00;10.30;;;;;;5033595;28;20398;-77
2023/03/17 12:25:44;;;;;;;6.70;3.30;;;18.10;10.60;;;;;;5035392;28;20403;-76
2023/03/17 12:28:16;;;;;;;8.77;3.83;;;18.20;10.20;;;;;;5033551;28;20395;-76
2023/03/17 12:30:53;;;;;;;7.10;3.40;;;18.00;10.60;;;;;;5033727;28;20461;-75
2023/03/17 12:33:29;;;;;;;10.00;3.38;;;18.20;10.60;;;;;;5034024;28;20395;-75
2023/03/17 12:35:57;;;;;;;6.90;3.20;;;18.40;10.20;;;;;;5034016;28;20390;-76
2023/03/17 12:38:36;;;;;;;7.25;3.50;;;18.30;10.20;;;;;;5033260;28;20395;-75
2023/03/17 12:41:19;;;;;;;8.75;3.15;;;18.60;10.10;;;;;;5033309;28;20386;-75
2023/03/17 12:43:47;;;;;;;6.88;3.70;;;18.70;9.50;;;;;;5033982;28;20379;-75
2023/03/17 12:46:27;;;;;;;7.97;3.50;;;18.80;9.90;;;;;;5033581;28;20406;-75
2023/03/17 12:48:56;;;;;;;9.07;3.90;;;18.40;10.20;;;;;;5032297;28;20391;-75
2023/03/17 12:51:47;;;;;;;7.20;3.33;;;18.60;9.70;;;;;;5032582;28;20390;-75
2023/03/17 12:54:20;;;;;;;6.18;3.40;;;18.40;10.30;;;;;;5031686;28;20744;-76
2023/03/17 12:56:47;;;;;;;6.97;3.03;;;18.50;10.20;;;;;;5031835;28;20391;-76
2023/03/17 12:59:23;;;;;;;8.25;3.50;;;18.60;10.00;;;;;;5032174;28;20907;-77
2023/03/17 13:02:15;;;;;;;8.43;3.43;;;18.40;9.90;;;;;;5033145;28;20884;-76